createdAt,value
2024-03-16T00:02:00.181Z,76.55664
2024-03-16T00:04:00.024Z,77.37598
2024-03-16T00:05:59.900Z,77.04883
2024-03-16T00:07:59.862Z,77.4043
2024-03-16T00:10:00.068Z,77.81836
2024-03-16T00:11:59.845Z,77.7168
2024-03-16T00:14:47.369Z,77.54492
2024-03-16T00:16:47.376Z,77.43945
2024-03-16T00:18:47.343Z,77.74023
2024-03-16T00:20:47.385Z,77.60156
2024-03-16T00:22:47.357Z,76.97656
2024-03-16T00:24:47.385Z,77.13965
2024-03-16T00:26:47.324Z,77.01563
2024-03-16T00:30:28.557Z,76.86523
2024-03-16T00:32:28.474Z,76.93164
2024-03-16T00:34:28.630Z,77.2168
2024-03-16T00:36:28.677Z,77.05078
2024-03-16T00:38:28.603Z,77.30762
2024-03-16T00:40:28.422Z,77.46484
2024-03-16T00:42:28.447Z,77.36719
2024-03-16T00:45:31.951Z,76.6582
2024-03-16T00:47:31.687Z,76.87207
2024-03-16T00:49:31.684Z,77.39063
2024-03-16T00:51:32.231Z,78.02832
2024-03-16T00:53:31.702Z,77.56055
2024-03-16T00:55:34.435Z,77.68066
2024-03-16T00:57:32.176Z,77.47559
2024-03-16T01:00:41.994Z,76.93359
2024-03-16T01:02:41.841Z,77.18945
2024-03-16T01:04:42.071Z,76.49902
2024-03-16T01:06:42.111Z,76.9668
2024-03-16T01:08:41.794Z,76.87598
2024-03-16T01:10:41.865Z,77.30957
2024-03-16T01:12:41.828Z,76.96875
2024-03-16T01:15:56.454Z,76.53125
2024-03-16T01:17:56.223Z,76.84473
2024-03-16T01:19:56.181Z,76.64258
2024-03-16T01:21:56.237Z,77.49414
2024-03-16T01:23:56.098Z,77.49609
2024-03-16T01:25:56.162Z,77.72461
2024-03-16T01:27:56.225Z,77.62695
2024-03-16T01:30:57.488Z,76.59961
2024-03-16T01:32:57.841Z,76.51758
2024-03-16T01:34:57.363Z,76.8418
2024-03-16T01:36:57.411Z,76.71777
2024-03-16T01:38:57.922Z,77.4502
2024-03-16T01:40:57.393Z,76.6582
2024-03-16T01:42:57.451Z,77.13672
2024-03-16T01:45:53.902Z,77.56152
2024-03-16T01:47:53.494Z,77.43262
2024-03-16T01:49:53.483Z,76.92188
2024-03-16T01:51:53.832Z,77.17578
2024-03-16T01:53:53.479Z,76.91895
2024-03-16T01:55:53.726Z,77.08594
2024-03-16T01:57:53.919Z,76.53125
2024-03-16T02:00:54.790Z,77.2666
2024-03-16T02:02:55.031Z,77.08105
2024-03-16T02:04:54.301Z,76.95801
2024-03-16T02:06:54.449Z,77.11035
2024-03-16T02:08:54.514Z,77.18457
2024-03-16T02:10:54.587Z,77.09375
2024-03-16T02:12:54.897Z,77.71777
2024-03-16T02:16:10.571Z,77.42383
2024-03-16T02:18:10.632Z,77.83789
2024-03-16T02:20:10.352Z,77.44922
2024-03-16T02:22:10.466Z,77.34473
2024-03-16T02:24:10.421Z,77.25488
2024-03-16T02:26:10.436Z,77.43652
2024-03-16T02:28:10.534Z,77.07422
2024-03-16T02:30:57.448Z,76.90137
2024-03-16T02:32:57.155Z,77.14355
2024-03-16T02:34:57.087Z,77.10742
2024-03-16T02:36:57.907Z,76.86328
2024-03-16T02:38:57.140Z,77.46387
2024-03-16T02:40:57.451Z,77.31445
2024-03-16T02:42:57.261Z,76.80859
2024-03-16T02:46:38.273Z,76.9375
2024-03-16T02:48:38.275Z,77.40234
2024-03-16T02:50:38.165Z,77.19434
2024-03-16T02:52:38.009Z,76.69434
2024-03-16T02:54:38.022Z,76.54199
2024-03-16T02:56:37.982Z,76.80762
2024-03-16T02:58:38.080Z,76.89844
2024-03-16T03:01:15.501Z,77.13281
2024-03-16T03:03:15.390Z,77.01953
2024-03-16T03:05:15.684Z,77.16699
2024-03-16T03:07:15.705Z,77.27637
2024-03-16T03:09:15.364Z,77.25879
2024-03-16T03:11:15.426Z,77.46973
2024-03-16T03:13:15.400Z,77.46484
2024-03-16T03:16:55.652Z,77.22168
2024-03-16T03:18:55.761Z,76.99902
2024-03-16T03:20:55.701Z,76.85156
2024-03-16T03:22:55.634Z,77.25098
2024-03-16T03:24:55.848Z,77.97168
2024-03-16T03:26:56.300Z,78.03613
2024-03-16T03:28:55.603Z,77.61621
2024-03-16T03:31:42.307Z,77.76172
2024-03-16T03:33:41.983Z,77.44141
2024-03-16T03:35:42.053Z,77.62988
2024-03-16T03:37:42.073Z,77.76855
2024-03-16T03:39:42.092Z,77.14453
2024-03-16T03:41:41.880Z,77.16211
2024-03-16T03:43:41.934Z,77.70996
2024-03-16T03:46:54.510Z,77.28906
2024-03-16T03:48:54.679Z,77.48438
2024-03-16T03:50:54.690Z,77.63672
2024-03-16T03:52:54.650Z,77.41699
2024-03-16T03:54:54.596Z,77.55957
2024-03-16T03:56:54.517Z,77.6123
2024-03-16T03:58:54.416Z,77.35449
2024-03-16T04:01:37.673Z,77.96191
2024-03-16T04:03:37.554Z,78.23145
2024-03-16T04:05:37.692Z,78.01953
2024-03-16T04:07:37.536Z,77.57227
2024-03-16T04:09:37.639Z,77.84863
2024-03-16T04:11:37.678Z,77.94824
2024-03-16T04:13:37.584Z,77.69824
2024-03-16T04:17:07.848Z,77.3623
2024-03-16T04:19:07.769Z,77.26074
2024-03-16T04:21:07.722Z,77.13281
2024-03-16T04:23:07.824Z,77.05859
2024-03-16T04:25:08.030Z,76.8584
2024-03-16T04:27:07.768Z,77.14453
2024-03-16T04:29:07.699Z,77.25586
2024-03-16T04:32:03.378Z,77.33789
2024-03-16T04:34:03.250Z,77.24023
2024-03-16T04:36:02.872Z,77.34766
2024-03-16T04:38:03.075Z,77.45703
2024-03-16T04:40:03.419Z,77.37109
2024-03-16T04:42:03.354Z,77.25879
2024-03-16T04:44:02.977Z,77.48242
2024-03-16T04:47:12.797Z,77.35254
2024-03-16T04:49:12.730Z,77.36328
2024-03-16T04:51:12.616Z,77.24707
2024-03-16T04:53:12.726Z,77.23828
2024-03-16T04:55:13.206Z,77.34277
2024-03-16T04:57:12.719Z,77.13867
2024-03-16T04:59:12.920Z,77.14258
2024-03-16T05:02:50.755Z,77.19238
2024-03-16T05:04:50.686Z,77.07422
2024-03-16T05:06:50.787Z,77.29004
2024-03-16T05:08:50.748Z,76.95605
2024-03-16T05:10:50.769Z,77.66699
2024-03-16T05:12:50.864Z,77.44824
2024-03-16T05:14:50.781Z,77.42285
2024-03-16T05:17:09.294Z,77.52051
2024-03-16T05:19:09.360Z,77.33691
2024-03-16T05:21:09.221Z,77.40234
2024-03-16T05:23:09.192Z,77.7041
2024-03-16T05:25:09.286Z,77.15332
2024-03-16T05:27:09.210Z,77.3252
2024-03-16T05:29:09.417Z,77.2959
2024-03-16T05:32:19.368Z,76.98438
2024-03-16T05:34:19.288Z,76.82129
2024-03-16T05:36:19.236Z,77.25977
2024-03-16T05:38:19.566Z,77.32129
2024-03-16T05:40:19.394Z,77.5498
2024-03-16T05:42:19.224Z,77.5127
2024-03-16T05:44:19.309Z,77.4082
2024-03-16T05:47:45.030Z,77.40234
2024-03-16T05:49:44.864Z,77.35742
2024-03-16T05:51:44.855Z,77.55859
2024-03-16T05:53:44.639Z,77.3252
2024-03-16T05:55:44.677Z,77.46289
2024-03-16T05:57:44.752Z,77.61523
2024-03-16T05:59:44.836Z,77.23438
2024-03-16T06:02:33.174Z,77.28223
2024-03-16T06:04:33.064Z,77.21484
2024-03-16T06:06:33.399Z,77.23438
2024-03-16T06:08:33.427Z,76.09375
2024-03-16T06:10:33.045Z,76.72363
2024-03-16T06:12:33.077Z,75.78027
2024-03-16T06:14:33.638Z,76.17871
2024-03-16T06:18:26.348Z,75.74609
2024-03-16T06:20:25.981Z,76.25684
2024-03-16T06:22:25.972Z,76.07324
2024-03-16T06:24:26.150Z,76.1709
2024-03-16T06:26:26.083Z,75.74609
2024-03-16T06:28:26.144Z,75.33887
2024-03-16T06:30:26.144Z,75.46484
2024-03-16T06:32:40.733Z,75.03027
2024-03-16T06:34:40.534Z,75.57031
2024-03-16T06:36:40.647Z,74.04297
2024-03-16T06:38:40.642Z,73.90527
2024-03-16T06:40:40.702Z,72.57813
2024-03-16T06:42:40.579Z,72.54395
2024-03-16T06:44:40.847Z,73.72266
2024-03-16T06:46:40.576Z,74.11914
2024-03-16T06:48:34.957Z,74.59766
2024-03-16T06:50:35.079Z,75.44141
2024-03-16T06:52:34.780Z,75.34277
2024-03-16T06:54:34.812Z,74.72949
2024-03-16T06:56:34.990Z,75.2373
2024-03-16T06:58:34.906Z,75.1123
2024-03-16T07:00:35.047Z,74.53125
2024-03-16T07:03:19.537Z,72.64551
2024-03-16T07:05:19.424Z,72.32324
2024-03-16T07:07:19.524Z,73.2334
2024-03-16T07:09:19.476Z,73.47266
2024-03-16T07:11:19.374Z,73.04395
2024-03-16T07:13:19.740Z,72.71582
2024-03-16T07:15:20.280Z,73.86133
2024-03-16T07:18:22.183Z,71.91992
2024-03-16T07:20:22.253Z,72.93652
2024-03-16T07:22:22.068Z,72.67676
2024-03-16T07:24:22.011Z,71.10449
2024-03-16T07:26:22.266Z,71.31836
2024-03-16T07:28:21.935Z,72.13184
2024-03-16T07:30:22.003Z,71.33398
2024-03-16T07:33:26.908Z,70.58789
2024-03-16T07:35:26.857Z,72.36621
2024-03-16T07:37:26.878Z,69.47559
2024-03-16T07:39:26.932Z,67.69336
2024-03-16T07:41:26.816Z,67.49121
2024-03-16T07:43:26.801Z,68.38672
2024-03-16T07:45:26.770Z,67.70215
2024-03-16T07:48:47.978Z,68.72852
2024-03-16T07:50:47.758Z,68.37793
2024-03-16T07:52:48.043Z,67.63574
2024-03-16T07:54:47.925Z,68.94824
2024-03-16T07:56:50.985Z,67.49707
2024-03-16T07:58:47.755Z,66.38477
2024-03-16T08:00:47.922Z,66.41504
2024-03-16T08:03:39.117Z,66.36328
2024-03-16T08:05:38.944Z,66.7168
2024-03-16T08:07:39.120Z,65.47559
2024-03-16T08:09:39.006Z,64.85254
2024-03-16T08:11:39.108Z,66.80566
2024-03-16T08:13:38.934Z,64.80957
2024-03-16T08:15:38.961Z,68.29688
2024-03-16T08:18:37.891Z,66.06641
2024-03-16T08:20:37.770Z,65.72656
2024-03-16T08:22:37.817Z,65.66309
2024-03-16T08:24:38.021Z,65.875
2024-03-16T08:26:37.815Z,66.94531
2024-03-16T08:28:38.169Z,66.68945
2024-03-16T08:30:38.444Z,62.44238
2024-03-16T08:32:37.820Z,63.53125
2024-03-16T08:33:55.388Z,64.60156
2024-03-16T08:35:55.455Z,66.69922
2024-03-16T08:37:56.093Z,66.35547
2024-03-16T08:39:56.427Z,66.70117
2024-03-16T08:41:55.539Z,66.27148
2024-03-16T08:43:55.378Z,66.4541
2024-03-16T08:45:55.398Z,64.7627
2024-03-16T08:49:14.845Z,66.97754
2024-03-16T08:51:14.559Z,65.89941
2024-03-16T08:53:14.815Z,66.74316
2024-03-16T08:55:15.390Z,66.1748
2024-03-16T08:57:14.940Z,65.77246
2024-03-16T08:59:14.650Z,65.01465
2024-03-16T09:01:14.947Z,66.14258
2024-03-16T09:04:00.673Z,68.50195
2024-03-16T09:06:00.542Z,63.91016
2024-03-16T09:08:00.815Z,63.20117
2024-03-16T09:10:00.692Z,65.24609
2024-03-16T09:12:00.520Z,63.96387
2024-03-16T09:14:00.447Z,64.16699
2024-03-16T09:16:00.507Z,65.80469
2024-03-16T09:18:00.596Z,60.39355
2024-03-16T09:20:01.977Z,55.87012
2024-03-16T09:21:57.859Z,57.75684
2024-03-16T09:23:57.834Z,50.99609
2024-03-16T09:25:57.796Z,56.5293
2024-03-16T09:27:57.833Z,53.05469
2024-03-16T09:29:58.111Z,49.91992
2024-03-16T09:31:57.771Z,49.92969
2024-03-16T09:34:26.211Z,47.89258
2024-03-16T09:36:26.230Z,49.42969
2024-03-16T09:38:26.195Z,48.80957
2024-03-16T09:40:26.379Z,48.27734
2024-03-16T09:42:26.518Z,49.21875
2024-03-16T09:44:26.189Z,50.11523
2024-03-16T09:46:26.266Z,50.7002
2024-03-16T09:50:11.822Z,48.22852
2024-03-16T09:52:11.700Z,48.09668
2024-03-16T09:54:11.740Z,45.4043
2024-03-16T09:56:11.847Z,47.69238
2024-03-16T09:58:15.954Z,45.33105
2024-03-16T10:00:11.768Z,44.81152
2024-03-16T10:02:11.762Z,46.54004
2024-03-16T10:04:56.960Z,46.66406
2024-03-16T10:06:56.925Z,48.18164
2024-03-16T10:08:56.833Z,45.81445
2024-03-16T10:10:56.974Z,45.93262
2024-03-16T10:12:56.960Z,45.84668
2024-03-16T10:14:56.861Z,46.88184
2024-03-16T10:16:56.901Z,45.73145
2024-03-16T10:20:14.844Z,44.93555
2024-03-16T10:22:14.704Z,46.16895
2024-03-16T10:24:14.562Z,44.80957
2024-03-16T10:26:14.608Z,45.9375
2024-03-16T10:28:14.748Z,44.49121
2024-03-16T10:30:14.553Z,47.3457
2024-03-16T10:32:14.620Z,46
2024-03-16T10:35:18.695Z,48.19238
2024-03-16T10:37:18.992Z,47.07617
2024-03-16T10:39:18.694Z,45.68262
2024-03-16T10:41:18.744Z,45.64844
2024-03-16T10:43:18.750Z,44.75391
2024-03-16T10:45:18.730Z,43.65137
2024-03-16T10:47:18.803Z,43.93555
2024-03-16T10:50:28.088Z,43.50488
2024-03-16T10:52:27.861Z,43.21289
2024-03-16T10:54:27.934Z,46.00879
2024-03-16T10:56:28.045Z,42.9668
2024-03-16T10:58:27.928Z,45.85547
2024-03-16T11:00:27.875Z,43.14355
2024-03-16T11:02:28.009Z,41.75977
2024-03-16T11:05:57.355Z,42.79297
2024-03-16T11:07:57.418Z,43.96582
2024-03-16T11:09:57.217Z,42.92773
2024-03-16T11:11:57.322Z,45.19531
2024-03-16T11:13:59.601Z,43.94922
2024-03-16T11:15:57.181Z,43.87402
2024-03-16T11:17:57.441Z,44.72852
2024-03-16T11:21:06.243Z,45.43457
2024-03-16T11:23:06.406Z,43.9248
2024-03-16T11:25:06.200Z,43.36035
2024-03-16T11:27:06.140Z,44.16113
2024-03-16T11:29:06.182Z,43.70996
2024-03-16T11:31:06.145Z,44.08887
2024-03-16T11:33:06.183Z,44.0459
2024-03-16T11:35:20.393Z,43.87012
2024-03-16T11:37:20.310Z,45.35938
2024-03-16T11:39:20.367Z,45.07422
2024-03-16T11:41:20.393Z,43.44043
2024-03-16T11:43:20.360Z,45.1377
2024-03-16T11:45:20.639Z,43.99512
2024-03-16T11:47:20.439Z,44.4043
2024-03-16T11:49:20.425Z,44.1748
2024-03-16T11:51:19.135Z,44.17969
2024-03-16T11:53:19.131Z,44.8877
2024-03-16T11:55:19.403Z,42.27051
2024-03-16T11:57:19.109Z,42.62793
2024-03-16T11:59:19.608Z,44.42285
2024-03-16T12:01:19.276Z,42.25781
2024-03-16T12:03:19.220Z,41.92773
2024-03-16T12:05:38.869Z,41.48633
2024-03-16T12:07:38.682Z,41.65625
2024-03-16T12:09:38.725Z,45.29102
2024-03-16T12:11:38.884Z,43.80176
2024-03-16T12:13:38.791Z,44.86719
2024-03-16T12:15:38.686Z,45.94336
2024-03-16T12:17:39.183Z,44.19824
2024-03-16T12:20:52.391Z,44.61133
2024-03-16T12:22:51.720Z,45.1377
2024-03-16T12:24:51.801Z,45.71875
2024-03-16T12:26:52.382Z,44.74023
2024-03-16T12:28:51.836Z,45.5957
2024-03-16T12:30:52.046Z,46.16211
2024-03-16T12:32:52.200Z,45.49121
2024-03-16T12:36:08.413Z,46.0918
2024-03-16T12:38:07.684Z,46.7627
2024-03-16T12:40:07.695Z,44.94922
2024-03-16T12:42:08.289Z,44.5918
2024-03-16T12:44:07.644Z,45.24219
2024-03-16T12:46:07.776Z,45.16504
2024-03-16T12:48:08.062Z,44.9043
2024-03-16T12:51:26.269Z,45.12402
2024-03-16T12:53:26.427Z,44.96289
2024-03-16T12:55:26.245Z,44.19043
2024-03-16T12:57:26.739Z,43.72754
2024-03-16T12:59:26.302Z,44.10059
2024-03-16T13:01:26.212Z,43.65234
2024-03-16T13:03:26.456Z,42.76758
2024-03-16T13:06:18.250Z,42.66211
2024-03-16T13:08:18.529Z,42.67578
2024-03-16T13:10:18.533Z,43.83203
2024-03-16T13:12:18.344Z,42.9209
2024-03-16T13:14:18.432Z,43.01758
2024-03-16T13:16:18.328Z,44.88867
2024-03-16T13:18:18.378Z,42.48828
2024-03-16T13:22:04.877Z,43.57324
2024-03-16T13:24:04.672Z,42.8877
2024-03-16T13:26:04.749Z,42.4873
2024-03-16T13:28:08.757Z,42.1123
2024-03-16T13:30:04.674Z,43.05371
2024-03-16T13:32:04.644Z,42.48242
2024-03-16T13:34:05.004Z,43.21875
2024-03-16T13:36:42.321Z,42.21387
2024-03-16T13:38:42.279Z,43.31445
2024-03-16T13:40:42.758Z,42.32227
2024-03-16T13:42:42.488Z,43.32813
2024-03-16T13:44:43.049Z,45.14551
2024-03-16T13:46:43.539Z,42.22754
2024-03-16T13:48:42.865Z,41.91504
2024-03-16T13:51:29.545Z,41.97461
2024-03-16T13:53:30.264Z,42.60449
2024-03-16T13:55:29.371Z,42.86914
2024-03-16T13:57:29.348Z,42.50293
2024-03-16T13:59:29.407Z,43.60254
2024-03-16T14:01:29.393Z,43.2832
2024-03-16T14:03:29.362Z,44.59375
2024-03-16T14:05:29.434Z,42.53516
2024-03-16T14:06:46.409Z,42.92285
2024-03-16T14:08:45.890Z,41.6123
2024-03-16T14:10:46.037Z,43.42578
2024-03-16T14:12:46.118Z,41.95898
2024-03-16T14:14:45.853Z,41.94727
2024-03-16T14:16:45.933Z,42.52832
2024-03-16T14:18:46.050Z,41.10254
2024-03-16T14:22:21.643Z,42.28223
2024-03-16T14:24:21.826Z,42.42383
2024-03-16T14:26:21.954Z,42.91211
2024-03-16T14:28:21.788Z,42.85156
2024-03-16T14:30:21.669Z,42.39648
2024-03-16T14:32:21.764Z,42.2334
2024-03-16T14:34:21.676Z,41.63086
2024-03-16T14:37:28.173Z,42.37695
2024-03-16T14:39:28.137Z,41.56348
2024-03-16T14:41:28.315Z,41.87012
2024-03-16T14:43:28.356Z,42.76172
2024-03-16T14:45:33.271Z,41.60059
2024-03-16T14:47:28.123Z,41.31934
2024-03-16T14:49:28.348Z,40.82617
2024-03-16T14:51:57.875Z,41.01953
2024-03-16T14:53:57.666Z,40.75098
2024-03-16T14:55:57.695Z,41.70703
2024-03-16T14:57:58.179Z,42.43066
2024-03-16T14:59:57.844Z,42.40527
2024-03-16T15:01:57.703Z,42.96289
2024-03-16T15:03:57.682Z,43.0918
2024-03-16T15:05:57.679Z,42.34375
2024-03-16T15:07:57.037Z,42.58496
2024-03-16T15:09:57.087Z,43.58691
2024-03-16T15:11:57.053Z,42.42285
2024-03-16T15:13:57.066Z,43.22949
2024-03-16T15:15:57.211Z,44.30566
2024-03-16T15:17:56.957Z,44.52539
2024-03-16T15:19:56.950Z,45.62207
2024-03-16T15:22:31.117Z,43.53027
2024-03-16T15:24:31.486Z,44.45313
2024-03-16T15:26:30.684Z,45.68359
2024-03-16T15:28:30.929Z,46.62207
2024-03-16T15:30:30.923Z,47.66113
2024-03-16T15:32:30.713Z,47.94238
2024-03-16T15:34:30.786Z,48.10254
2024-03-16T15:38:13.152Z,48.36328
2024-03-16T15:40:12.944Z,48.4502
2024-03-16T15:42:12.907Z,48.30078
2024-03-16T15:44:12.851Z,48.36426
2024-03-16T15:46:13.054Z,49.15234
2024-03-16T15:48:12.980Z,49.22461
2024-03-16T15:50:12.894Z,49.56445
2024-03-16T15:53:16.092Z,50.19336
2024-03-16T15:55:15.819Z,50.66113
2024-03-16T15:57:15.757Z,51.26465
2024-03-16T15:59:15.943Z,52.05664
2024-03-16T16:01:15.795Z,52.4375
2024-03-16T16:03:15.855Z,52.86816
2024-03-16T16:05:15.993Z,53.36328
2024-03-16T16:08:21.341Z,53.87109
2024-03-16T16:10:21.348Z,54.13086
2024-03-16T16:12:21.215Z,54.40234
2024-03-16T16:14:21.385Z,54.21094
2024-03-16T16:16:21.192Z,54.40039
2024-03-16T16:18:21.284Z,54.60938
2024-03-16T16:20:22.022Z,54.43652
2024-03-16T16:22:55.045Z,54.80664
2024-03-16T16:24:55.149Z,54.99414
2024-03-16T16:26:59.077Z,55.1709
2024-03-16T16:28:55.118Z,55.18457
2024-03-16T16:30:55.218Z,54.95898
2024-03-16T16:32:55.371Z,55.26172
2024-03-16T16:34:55.195Z,55.26953
2024-03-16T16:37:54.726Z,55.2041
2024-03-16T16:39:54.625Z,55.48535
2024-03-16T16:41:54.867Z,55.9707
2024-03-16T16:43:54.428Z,55.90234
2024-03-16T16:45:54.581Z,56.0957
2024-03-16T16:47:55.500Z,55.94824
2024-03-16T16:49:55.579Z,56.35938
2024-03-16T16:51:54.629Z,56.91895
2024-03-16T16:53:26.064Z,56.69824
2024-03-16T16:55:25.705Z,56.91016
2024-03-16T16:57:25.621Z,57.07617
2024-03-16T16:59:25.814Z,57.30176
2024-03-16T17:01:25.600Z,57.95313
2024-03-16T17:03:25.551Z,57.72363
2024-03-16T17:05:25.717Z,57.89063
2024-03-16T17:08:55.630Z,58.73145
2024-03-16T17:10:55.929Z,59.42676
2024-03-16T17:12:55.820Z,59.74316
2024-03-16T17:14:55.409Z,59.98926
2024-03-16T17:16:55.556Z,59.67188
2024-03-16T17:18:55.602Z,59.90527
2024-03-16T17:20:55.419Z,60.07422
2024-03-16T17:23:35.990Z,61.03125
2024-03-16T17:25:35.849Z,60.50586
2024-03-16T17:27:35.888Z,60.1543
2024-03-16T17:29:36.251Z,60.10449
2024-03-16T17:31:36.065Z,60.8457
2024-03-16T17:33:35.876Z,61.17676
2024-03-16T17:35:36.518Z,60.63477
2024-03-16T17:38:48.171Z,61.68945
2024-03-16T17:40:47.875Z,62.0166
2024-03-16T17:42:47.898Z,62.03711
2024-03-16T17:44:48.364Z,62.59277
2024-03-16T17:46:47.738Z,62.66895
2024-03-16T17:48:47.814Z,62.82422
2024-03-16T17:50:47.852Z,62.69824
2024-03-16T17:54:22.328Z,61.43555
2024-03-16T17:56:22.445Z,61.51855
2024-03-16T17:58:22.220Z,62.25684
2024-03-16T18:00:22.427Z,62.61133
2024-03-16T18:02:22.805Z,62.95215
2024-03-16T18:04:22.299Z,63.26563
2024-03-16T18:06:22.192Z,62.54688
2024-03-16T18:08:50.488Z,62.22168
2024-03-16T18:10:50.441Z,61.99023
2024-03-16T18:12:50.790Z,62.15234
2024-03-16T18:14:50.443Z,61.61719
2024-03-16T18:16:50.390Z,61.77344
2024-03-16T18:18:51.671Z,61.86914
2024-03-16T18:20:50.586Z,61.70117
2024-03-16T18:23:44.629Z,61.91211
2024-03-16T18:25:45.351Z,62.14355
2024-03-16T18:27:44.805Z,62.20898
2024-03-16T18:29:44.713Z,62.6377
2024-03-16T18:31:44.639Z,62.19434
2024-03-16T18:33:45.270Z,62.09863
2024-03-16T18:35:44.723Z,62.56152
2024-03-16T18:37:44.599Z,62.49512
2024-03-16T18:39:30.007Z,62.40332
2024-03-16T18:41:30.080Z,61.78027
2024-03-16T18:43:29.959Z,62.27246
2024-03-16T18:45:29.945Z,61.89453
2024-03-16T18:47:29.927Z,62.2373
2024-03-16T18:49:30.386Z,62.06738
2024-03-16T18:51:30.019Z,62.91895
2024-03-16T18:54:49.278Z,63.45996
2024-03-16T18:56:49.404Z,63.33789
2024-03-16T18:58:49.325Z,63.16797
2024-03-16T19:00:49.286Z,63.26758
2024-03-16T19:02:55.884Z,63.18457
2024-03-16T19:04:49.266Z,62.50977
2024-03-16T19:06:49.282Z,62.65039
2024-03-16T19:09:58.022Z,62.66797
2024-03-16T19:11:57.635Z,63.03906
2024-03-16T19:13:57.625Z,62.68359
2024-03-16T19:15:57.954Z,62.79785
2024-03-16T19:18:00.714Z,62.77441
2024-03-16T19:19:57.810Z,63.23828
2024-03-16T19:21:57.934Z,63.3584
2024-03-16T19:24:44.209Z,63.29199
2024-03-16T19:26:44.295Z,63.72559
2024-03-16T19:28:44.211Z,63.71875
2024-03-16T19:30:44.364Z,64.00098
2024-03-16T19:32:44.453Z,63.93848
2024-03-16T19:34:44.412Z,64.02051
2024-03-16T19:36:44.215Z,64.24316
2024-03-16T19:39:38.656Z,64.48047
2024-03-16T19:41:38.714Z,64.62207
2024-03-16T19:43:38.406Z,64.82617
2024-03-16T19:45:38.419Z,65.23242
2024-03-16T19:47:38.747Z,64.9707
2024-03-16T19:49:38.934Z,65.28418
2024-03-16T19:51:38.495Z,65.7666
2024-03-16T19:55:08.667Z,66.46875
2024-03-16T19:57:08.337Z,66.33008
2024-03-16T19:59:08.185Z,66.42676
2024-03-16T20:01:08.339Z,66.09668
2024-03-16T20:03:08.334Z,65.74316
2024-03-16T20:05:08.297Z,66.0498
2024-03-16T20:07:08.282Z,66.19629
2024-03-16T20:10:17.482Z,66.12695
2024-03-16T20:12:16.899Z,66.0498
2024-03-16T20:14:16.946Z,66.84375
2024-03-16T20:16:17.029Z,67.34277
2024-03-16T20:18:16.905Z,66.50879
2024-03-16T20:20:17.102Z,66.75293
2024-03-16T20:22:17.263Z,66.76758
2024-03-16T20:25:05.076Z,67.34082
2024-03-16T20:27:05.249Z,67.13281
2024-03-16T20:29:05.001Z,66.86816
2024-03-16T20:31:05.246Z,66.84766
2024-03-16T20:33:05.288Z,66.77051
2024-03-16T20:35:05.026Z,66.71582
2024-03-16T20:37:04.991Z,67.1875
2024-03-16T20:40:38.457Z,67.50977
2024-03-16T20:42:38.268Z,67.65723
2024-03-16T20:44:38.182Z,67.70313
2024-03-16T20:46:38.245Z,67.67676
2024-03-16T20:48:38.263Z,67.71973
2024-03-16T20:50:38.093Z,67.94434
2024-03-16T20:52:38.273Z,67.23438
2024-03-16T20:55:45.536Z,67.92871
2024-03-16T20:57:48.050Z,68.6582
2024-03-16T20:59:45.499Z,67.36914
2024-03-16T21:01:45.628Z,67.86426
2024-03-16T21:03:45.632Z,67.56836
2024-03-16T21:05:45.487Z,68.19238
2024-03-16T21:07:45.506Z,68.04102
2024-03-16T21:10:31.440Z,67.2998
2024-03-16T21:12:30.979Z,67.29688
2024-03-16T21:14:30.959Z,67.54492
2024-03-16T21:16:31.148Z,67.90918
2024-03-16T21:18:31.010Z,67.40332
2024-03-16T21:20:30.957Z,67.55859
2024-03-16T21:22:31.088Z,67.34277
2024-03-16T21:25:52.626Z,67.69824
2024-03-16T21:27:52.846Z,67.54297
2024-03-16T21:29:52.569Z,68.24609
2024-03-16T21:31:52.489Z,67.70508
2024-03-16T21:33:52.670Z,67.36523
2024-03-16T21:35:52.518Z,67.58203
2024-03-16T21:37:52.668Z,67.64453
2024-03-16T21:41:11.565Z,67.84277
2024-03-16T21:43:11.466Z,67.65918
2024-03-16T21:45:11.895Z,67.62793
2024-03-16T21:47:11.487Z,68.0332
2024-03-16T21:49:11.659Z,67.92578
2024-03-16T21:51:11.594Z,68.30762
2024-03-16T21:53:11.625Z,68.37891
2024-03-16T21:56:26.635Z,67.92773
2024-03-16T21:58:26.433Z,67.90527
2024-03-16T22:00:26.846Z,67.92578
2024-03-16T22:02:26.355Z,67.71777
2024-03-16T22:04:28.768Z,68.05371
2024-03-16T22:06:26.303Z,68.47363
2024-03-16T22:08:26.618Z,68.71777
2024-03-16T22:11:16.239Z,68.67676
2024-03-16T22:13:16.261Z,69.00879
2024-03-16T22:15:16.668Z,68.96484
2024-03-16T22:17:16.474Z,69.00586
2024-03-16T22:19:16.274Z,69.0791
2024-03-16T22:21:16.613Z,68.84277
2024-03-16T22:23:16.216Z,68.37207
2024-03-16T22:25:49.220Z,68.98828
2024-03-16T22:27:49.271Z,68.78809
2024-03-16T22:29:49.172Z,69.48145
2024-03-16T22:31:49.192Z,69.64258
2024-03-16T22:33:49.185Z,68.98145
2024-03-16T22:35:49.083Z,69.41406
2024-03-16T22:37:49.354Z,69.00879
2024-03-16T22:39:49.259Z,69.05371
2024-03-16T22:41:20.320Z,69.44824
2024-03-16T22:43:20.281Z,69.33105
2024-03-16T22:45:20.499Z,68.81152
2024-03-16T22:47:20.318Z,69.33496
2024-03-16T22:49:20.646Z,69.14648
2024-03-16T22:51:20.434Z,69.30469
2024-03-16T22:53:20.340Z,69.37598
2024-03-16T22:56:39.776Z,69.8418
2024-03-16T22:58:38.306Z,69.79004
2024-03-16T23:00:38.095Z,69.91211
2024-03-16T23:02:38.286Z,69.69824
2024-03-16T23:04:38.133Z,69.51855
2024-03-16T23:06:38.392Z,69.6377
2024-03-16T23:08:38.670Z,70.08008
2024-03-16T23:11:11.500Z,70.26855
2024-03-16T23:13:11.328Z,70.49707
2024-03-16T23:15:11.439Z,70.60059
2024-03-16T23:17:11.352Z,70.59082
2024-03-16T23:19:11.388Z,70.26563
2024-03-16T23:21:11.428Z,69.70996
2024-03-16T23:23:11.489Z,69.94824
2024-03-16T23:25:11.334Z,70.06836
2024-03-16T23:26:48.651Z,70.29395
2024-03-16T23:28:48.673Z,70.64063
2024-03-16T23:30:48.727Z,70.18652
2024-03-16T23:32:49.038Z,70.58984
2024-03-16T23:34:48.717Z,70.88965
2024-03-16T23:36:50.057Z,70.76074
2024-03-16T23:38:48.913Z,70.4082
2024-03-16T23:41:45.292Z,70.81445
2024-03-16T23:43:45.229Z,70.89063
2024-03-16T23:45:45.331Z,70.4248
2024-03-16T23:47:45.212Z,70.63965
2024-03-16T23:49:45.350Z,70.8125
2024-03-16T23:51:45.334Z,71.0459
2024-03-16T23:53:48.279Z,71.12988
2024-03-16T23:56:38.339Z,71.01758
2024-03-16T23:58:38.553Z,71.13672
